Time;durP1;ratioP1;P1;durP2;ratioP2;P2;SDS_P1;SDS_P2;PMS_P1;PMS_P2;Temp;Humidity;BMP_temperature;BMP_pressure;BME280_temperature;BME280_humidity;BME280_pressure;Samples;Min_cycle;Max_cycle;Signal;HPM_P1;HPM_P2
2021/12/11 00:00:26;;;;;;;28.30;14.43;;;-1.40;99.90;;;;;;6306755;22;20038;-81
2021/12/11 00:03:20;;;;;;;29.20;15.17;;;-1.80;99.90;;;;;;6304773;22;20014;-81
2021/12/11 00:06:13;;;;;;;26.15;14.15;;;-1.80;99.90;;;;;;6306033;22;20448;-82
2021/12/11 00:09:02;;;;;;;23.83;14.90;;;-1.30;99.90;;;;;;6304622;22;20041;-82
2021/12/11 00:11:52;;;;;;;28.37;13.90;;;-1.80;99.90;;;;;;6306508;22;20015;-82
2021/12/11 00:14:40;;;;;;;22.20;13.30;;;-1.70;99.90;;;;;;6306672;22;20011;-81
2021/12/11 00:17:31;;;;;;;21.80;12.50;;;-1.80;99.90;;;;;;6305071;22;20082;-81
2021/12/11 00:20:22;;;;;;;26.57;13.93;;;-1.80;99.90;;;;;;6305972;22;20022;-81
2021/12/11 00:23:06;;;;;;;26.87;13.30;;;-1.80;99.90;;;;;;6305890;22;20088;-82
2021/12/11 00:25:51;;;;;;;26.57;13.83;;;-1.90;99.90;;;;;;6305312;22;20015;-82
2021/12/11 00:28:46;;;;;;;26.47;13.70;;;-1.90;99.90;;;;;;6305490;22;20341;-82
2021/12/11 00:31:33;;;;;;;25.07;14.10;;;-1.90;99.90;;;;;;6306794;22;20015;-83
2021/12/11 00:34:19;;;;;;;29.23;15.13;;;-1.90;99.90;;;;;;6306151;22;20542;-83
2021/12/11 00:37:07;;;;;;;26.50;15.47;;;-1.90;99.90;;;;;;6304816;22;20014;-81
2021/12/11 00:39:54;;;;;;;28.07;15.27;;;-1.90;99.90;;;;;;6307853;22;20383;-82
2021/12/11 00:42:39;;;;;;;27.00;15.13;;;-2.00;99.90;;;;;;6308731;22;20061;-81
2021/12/11 00:45:27;;;;;;;27.97;16.50;;;-1.90;99.90;;;;;;6308359;22;20157;-81
2021/12/11 00:48:19;;;;;;;32.93;17.27;;;-2.00;99.90;;;;;;6308062;22;20015;-81
2021/12/11 00:51:07;;;;;;;28.87;16.33;;;-2.00;99.90;;;;;;6307058;22;20010;-82
2021/12/11 00:53:58;;;;;;;34.70;17.40;;;-2.00;99.90;;;;;;6308639;22;20015;-82
2021/12/11 00:56:45;;;;;;;35.33;17.80;;;-2.00;99.90;;;;;;6308624;22;20068;-83
2021/12/11 00:59:29;;;;;;;36.33;18.67;;;-2.00;99.90;;;;;;6307404;22;20022;-82
2021/12/11 01:02:14;;;;;;;34.00;19.43;;;-2.00;99.90;;;;;;6306588;22;20053;-82
2021/12/11 01:04:58;;;;;;;36.13;20.43;;;-2.00;99.90;;;;;;6308390;22;20113;-82
2021/12/11 01:07:43;;;;;;;33.93;18.70;;;-2.00;99.90;;;;;;6307206;22;20030;-82
2021/12/11 01:10:28;;;;;;;35.47;19.30;;;-1.60;99.90;;;;;;6308017;22;20052;-82
2021/12/11 01:13:18;;;;;;;35.60;18.73;;;-2.10;99.90;;;;;;6306739;22;20040;-82
2021/12/11 01:16:10;;;;;;;35.90;19.07;;;-2.10;99.90;;;;;;6308193;22;20495;-84
2021/12/11 01:18:57;;;;;;;36.07;18.20;;;-2.00;99.90;;;;;;6307076;22;20035;-82
2021/12/11 01:21:45;;;;;;;31.87;17.77;;;-2.00;99.90;;;;;;6308312;22;20383;-82
2021/12/11 01:24:44;;;;;;;33.57;18.93;;;-2.10;99.90;;;;;;6308085;22;20378;-82
2021/12/11 01:27:28;;;;;;;34.93;19.00;;;-2.10;99.90;;;;;;6307692;22;20069;-82
2021/12/11 01:30:20;;;;;;;36.03;19.23;;;-2.10;99.90;;;;;;6306306;22;20015;-82
2021/12/11 01:33:07;;;;;;;36.10;19.37;;;-2.10;99.90;;;;;;6307912;22;20017;-83
2021/12/11 01:35:51;;;;;;;36.87;18.70;;;-2.00;99.90;;;;;;6308042;22;20041;-82
2021/12/11 01:38:36;;;;;;;36.23;19.10;;;-2.10;99.90;;;;;;6306613;22;20034;-82
2021/12/11 01:41:22;;;;;;;36.33;18.63;;;-2.10;99.90;;;;;;6306404;22;20042;-82
2021/12/11 01:44:12;;;;;;;35.40;18.00;;;-2.10;99.90;;;;;;6284850;22;20038;-84
2021/12/11 01:46:59;;;;;;;35.20;19.63;;;-1.40;99.90;;;;;;6308094;22;20057;-82
2021/12/11 01:49:47;;;;;;;38.23;17.93;;;-2.10;99.90;;;;;;6306505;22;20065;-82
2021/12/11 01:52:57;;;;;;;32.03;17.20;;;-2.10;99.90;;;;;;6305879;22;20463;-82
2021/12/11 01:55:44;;;;;;;28.97;17.07;;;-2.10;99.90;;;;;;6307758;22;20479;-82
2021/12/11 01:58:50;;;;;;;33.70;17.23;;;-2.10;99.90;;;;;;6307185;22;20440;-82
2021/12/11 02:01:54;;;;;;;34.53;18.97;;;-2.10;99.90;;;;;;6307767;22;20498;-82
2021/12/11 02:04:44;;;;;;;33.17;19.00;;;-2.20;99.90;;;;;;6306620;22;20022;-82
2021/12/11 02:07:36;;;;;;;39.77;20.43;;;-2.20;99.90;;;;;;6307253;22;20046;-82
2021/12/11 02:10:38;;;;;;;34.57;18.27;;;-2.20;99.90;;;;;;6306012;22;20069;-82
2021/12/11 02:13:39;;;;;;;40.47;21.57;;;-2.20;99.90;;;;;;6307193;22;20029;-82
2021/12/11 02:16:41;;;;;;;42.77;22.77;;;-2.20;99.90;;;;;;6305975;22;20018;-82
2021/12/11 02:19:32;;;;;;;34.83;20.97;;;-2.20;99.90;;;;;;6305836;22;20011;-82
2021/12/11 02:22:20;;;;;;;39.30;22.30;;;-2.30;99.90;;;;;;6305756;22;20099;-83
2021/12/11 02:25:10;;;;;;;39.07;21.73;;;-2.30;99.90;;;;;;6307751;22;20033;-82
2021/12/11 02:28:07;;;;;;;39.00;21.13;;;-2.30;99.90;;;;;;6307688;22;20092;-83
2021/12/11 02:31:04;;;;;;;41.57;22.07;;;-2.30;99.90;;;;;;6307515;22;20383;-82
2021/12/11 02:34:01;;;;;;;34.27;20.10;;;-2.30;99.90;;;;;;6307506;22;20030;-83
2021/12/11 02:36:55;;;;;;;37.90;18.93;;;-2.40;99.90;;;;;;6306257;22;20010;-82
2021/12/11 02:39:53;;;;;;;38.13;19.53;;;-2.40;99.90;;;;;;6307261;22;20061;-82
2021/12/11 02:42:48;;;;;;;34.83;19.40;;;-2.40;99.90;;;;;;6305424;22;20014;-82
2021/12/11 02:45:43;;;;;;;29.90;18.20;;;-2.40;99.90;;;;;;6305650;22;20444;-82
2021/12/11 02:48:42;;;;;;;37.33;18.93;;;-2.40;99.90;;;;;;6306887;22;20010;-82
2021/12/11 02:51:35;;;;;;;30.13;17.47;;;-2.40;99.90;;;;;;6306841;22;20332;-83
2021/12/11 02:54:25;;;;;;;30.90;18.03;;;-2.50;99.90;;;;;;6306983;22;20061;-83
2021/12/11 02:57:33;;;;;;;32.60;18.40;;;-2.50;99.90;;;;;;6305806;22;20011;-83
2021/12/11 03:00:34;;;;;;;32.83;18.27;;;-2.50;99.90;;;;;;6306902;22;20018;-85
2021/12/11 03:03:26;;;;;;;35.60;18.47;;;-2.50;99.90;;;;;;6305324;22;20014;-84
2021/12/11 03:06:19;;;;;;;39.03;19.87;;;-2.50;99.90;;;;;;6306028;22;20018;-83
2021/12/11 03:09:05;;;;;;;35.20;18.43;;;-2.50;99.90;;;;;;6307216;22;20078;-83
2021/12/11 03:11:53;;;;;;;38.40;19.83;;;-2.50;99.90;;;;;;6307426;22;20064;-83
2021/12/11 03:14:37;;;;;;;36.90;18.10;;;-2.50;99.90;;;;;;6305279;22;20049;-83
2021/12/11 03:17:23;;;;;;;30.43;17.97;;;-2.50;99.90;;;;;;6305400;22;20512;-83
2021/12/11 03:20:13;;;;;;;33.13;17.50;;;-2.50;99.90;;;;;;6305812;22;20451;-83
2021/12/11 03:22:57;;;;;;;35.27;18.23;;;-2.50;99.90;;;;;;6305711;22;20014;-83
2021/12/11 03:25:42;;;;;;;32.43;17.13;;;-2.50;99.90;;;;;;6306477;22;20018;-82
2021/12/11 03:28:27;;;;;;;37.30;20.17;;;-2.50;99.90;;;;;;6283685;22;20018;-83
2021/12/11 03:31:12;;;;;;;32.77;18.73;;;-2.50;99.90;;;;;;6283944;22;20098;-83
2021/12/11 03:33:58;;;;;;;35.80;19.03;;;-2.50;99.90;;;;;;6306998;22;20444;-83
2021/12/11 03:36:43;;;;;;;32.30;18.27;;;-2.50;99.90;;;;;;6283375;22;20014;-83
2021/12/11 03:39:39;;;;;;;33.57;18.43;;;-2.50;99.90;;;;;;6305055;22;20013;-83
2021/12/11 03:42:30;;;;;;;34.10;18.10;;;-2.50;99.90;;;;;;6306527;22;20018;-85
2021/12/11 03:45:18;;;;;;;33.33;15.57;;;-2.60;99.90;;;;;;6306986;22;20060;-82
2021/12/11 03:48:16;;;;;;;30.20;18.07;;;-2.50;99.90;;;;;;6306813;22;20014;-82
2021/12/11 03:51:10;;;;;;;23.67;14.23;;;-2.60;99.90;;;;;;6305680;22;20010;-82
2021/12/11 03:53:55;;;;;;;;;;;-2.70;99.90;;;;;;6307590;22;20018;-82
2021/12/11 03:56:40;;;;;;;34.92;16.00;;;-2.70;99.90;;;;;;6304992;22;20280;-83
2021/12/11 03:59:26;;;;;;;33.03;17.47;;;-2.00;99.90;;;;;;6304865;22;20145;-84
2021/12/11 04:02:12;;;;;;;35.30;18.07;;;-2.60;99.90;;;;;;6306608;22;20072;-82
2021/12/11 04:05:00;;;;;;;37.67;17.83;;;-2.60;99.90;;;;;;6305279;22;20436;-82
2021/12/11 04:07:50;;;;;;;31.97;17.70;;;-2.60;99.90;;;;;;6306135;22;20475;-83
2021/12/11 04:10:34;;;;;;;34.43;17.63;;;-2.60;99.90;;;;;;6304888;22;20045;-83
2021/12/11 04:13:19;;;;;;;38.80;18.77;;;-2.50;99.90;;;;;;6305200;22;20022;-83
2021/12/11 04:16:06;;;;;;;34.83;18.50;;;-2.50;99.90;;;;;;6305346;22;20046;-82
2021/12/11 04:18:51;;;;;;;37.47;17.67;;;-2.00;99.90;;;;;;6304748;22;20049;-82
2021/12/11 04:21:36;;;;;;;35.63;18.83;;;-2.50;99.90;;;;;;6304572;22;20405;-83
2021/12/11 04:24:24;;;;;;;35.27;18.47;;;-2.40;99.90;;;;;;6306665;22;20399;-82
2021/12/11 04:27:12;;;;;;;38.17;18.97;;;-2.40;99.90;;;;;;6306586;22;20054;-82
2021/12/11 04:29:56;;;;;;;38.87;19.73;;;-2.40;99.90;;;;;;6306462;22;20064;-82
2021/12/11 04:32:42;;;;;;;34.07;18.83;;;-2.40;99.90;;;;;;6306177;22;20486;-82
2021/12/11 04:35:29;;;;;;;39.63;18.67;;;-2.40;99.90;;;;;;6306468;22;20340;-83
2021/12/11 04:38:14;;;;;;;45.37;21.23;;;-2.40;99.90;;;;;;6306362;22;20018;-83
2021/12/11 04:41:00;;;;;;;44.90;20.70;;;-2.30;99.90;;;;;;6305238;22;20030;-82
2021/12/11 04:43:47;;;;;;;39.03;18.60;;;-2.20;99.90;;;;;;6304631;22;20072;-82
2021/12/11 04:46:31;;;;;;;42.90;20.37;;;-1.30;99.90;;;;;;6304812;22;20014;-84
2021/12/11 04:49:27;;;;;;;42.83;20.00;;;-2.20;99.90;;;;;;6305272;22;20018;-83
2021/12/11 04:52:18;;;;;;;39.63;19.57;;;-2.20;99.90;;;;;;6305233;22;20089;-82
2021/12/11 04:55:32;;;;;;;42.73;21.97;;;-2.20;99.90;;;;;;6305423;22;20452;-82
2021/12/11 04:58:40;;;;;;;38.57;17.90;;;-2.20;99.90;;;;;;6304835;22;20021;-82
2021/12/11 05:01:50;;;;;;;39.53;20.30;;;-2.10;99.90;;;;;;6305041;22;20384;-83
2021/12/11 05:10:26;;;;;;;37.07;19.10;;;-2.10;99.90;;;;;;6306273;22;20118;-82
2021/12/11 05:13:10;;;;;;;35.47;19.23;;;-2.10;99.90;;;;;;6305139;22;20017;-82
2021/12/11 05:15:55;;;;;;;;;;;-2.10;99.90;;;;;;6306345;22;20022;-82
2021/12/11 05:18:44;;;;;;;34.73;17.77;;;-2.10;99.90;;;;;;6304504;22;19910;-82
2021/12/11 05:21:29;;;;;;;31.20;17.53;;;-2.20;99.90;;;;;;6306316;22;20060;-83
2021/12/11 05:24:15;;;;;;;33.07;17.63;;;-2.20;99.90;;;;;;6304804;22;20076;-82
2021/12/11 05:27:01;;;;;;;32.73;16.87;;;-2.20;99.90;;;;;;6307616;22;20109;-82
2021/12/11 05:29:45;;;;;;;32.03;17.27;;;-2.20;99.90;;;;;;6284831;22;20098;-82
2021/12/11 05:32:29;;;;;;;30.13;16.70;;;-1.20;99.90;;;;;;6308076;22;20017;-82
2021/12/11 05:35:14;;;;;;;;;;;-2.20;99.90;;;;;;6307333;22;20018;-82
2021/12/11 05:38:00;;;;;;;29.27;15.60;;;-1.70;99.90;;;;;;6306268;22;19905;-82
2021/12/11 05:40:48;;;;;;;30.87;16.30;;;-2.30;99.90;;;;;;6306093;22;20073;-82
2021/12/11 05:43:33;;;;;;;33.53;16.57;;;-2.30;99.90;;;;;;6307904;22;20574;-82
2021/12/11 05:46:18;;;;;;;31.10;17.23;;;-2.30;99.90;;;;;;6306502;22;20072;-83
2021/12/11 05:49:04;;;;;;;28.87;16.83;;;-2.30;99.90;;;;;;6307322;22;20148;-82
2021/12/11 05:51:51;;;;;;;30.87;15.37;;;-2.30;99.90;;;;;;6305914;22;20337;-82
2021/12/11 05:54:37;;;;;;;31.10;16.73;;;-2.30;99.90;;;;;;6307721;22;20088;-82
2021/12/11 05:57:22;;;;;;;33.33;17.97;;;-2.30;99.90;;;;;;6306378;22;20092;-82
2021/12/11 06:00:09;;;;;;;30.77;17.03;;;-2.30;99.90;;;;;;6306040;22;20456;-82
2021/12/11 06:02:54;;;;;;;31.27;16.87;;;-2.30;99.90;;;;;;6305870;22;20571;-82
2021/12/11 06:05:39;;;;;;;29.23;16.23;;;-2.30;99.90;;;;;;6284730;22;20050;-82
2021/12/11 06:08:24;;;;;;;32.00;17.07;;;-2.40;99.90;;;;;;6284838;22;20050;-81
2021/12/11 06:11:10;;;;;;;29.17;16.33;;;-2.40;99.90;;;;;;6306511;22;20372;-81
2021/12/11 06:13:55;;;;;;;32.07;16.77;;;-2.40;99.90;;;;;;6305829;22;20068;-82
2021/12/11 06:16:39;;;;;;;29.03;16.37;;;-2.30;99.90;;;;;;6284621;22;20029;-82
2021/12/11 06:19:26;;;;;;;28.17;15.60;;;-2.40;99.90;;;;;;6307691;22;20015;-81
2021/12/11 06:22:10;;;;;;;37.27;20.10;;;-2.40;99.90;;;;;;6284660;22;20014;-82
2021/12/11 06:24:57;;;;;;;33.23;17.40;;;-2.30;99.90;;;;;;6305753;22;20072;-82
2021/12/11 06:27:43;;;;;;;33.03;18.67;;;-2.50;99.90;;;;;;6285108;22;20099;-82
2021/12/11 06:30:28;;;;;;;33.23;18.77;;;-2.50;99.90;;;;;;6306282;22;20010;-82
2021/12/11 06:33:12;;;;;;;31.70;16.60;;;-2.50;99.90;;;;;;6284749;22;20034;-81
2021/12/11 06:36:08;;;;;;;28.93;16.53;;;-2.50;99.90;;;;;;6283871;22;20049;-81
2021/12/11 06:38:57;;;;;;;33.17;17.57;;;-2.50;99.90;;;;;;6306870;22;20440;-81
2021/12/11 06:41:44;;;;;;;35.17;17.13;;;-2.60;99.90;;;;;;6305993;22;20014;-81
2021/12/11 06:44:29;;;;;;;36.27;17.43;;;-2.60;99.90;;;;;;6305921;22;20017;-81
2021/12/11 06:47:14;;;;;;;32.90;16.87;;;-2.60;99.90;;;;;;6307397;22;20428;-82
2021/12/11 06:50:02;;;;;;;28.93;15.53;;;-2.60;99.90;;;;;;6306755;22;20436;-81
2021/12/11 06:52:48;;;;;;;31.43;16.93;;;-2.60;99.90;;;;;;6284884;22;20018;-82
2021/12/11 06:55:33;;;;;;;30.33;17.10;;;-2.60;99.90;;;;;;6305940;22;20018;-81
2021/12/11 06:58:17;;;;;;;29.60;17.03;;;-2.60;99.90;;;;;;6305453;22;20084;-81
2021/12/11 07:01:03;;;;;;;34.83;17.53;;;-2.70;99.90;;;;;;6306581;22;20019;-81
2021/12/11 07:03:48;;;;;;;33.57;17.30;;;-2.70;99.90;;;;;;6305882;22;20018;-81
2021/12/11 07:06:33;;;;;;;36.30;18.63;;;-2.70;99.90;;;;;;6283941;22;20042;-81
2021/12/11 07:09:19;;;;;;;31.37;18.07;;;-2.70;99.90;;;;;;6305471;22;20014;-82
2021/12/11 07:12:05;;;;;;;36.50;19.10;;;-2.70;99.90;;;;;;6306644;22;20014;-81
2021/12/11 07:14:50;;;;;;;34.70;18.23;;;-2.70;99.90;;;;;;6305865;22;20018;-82
2021/12/11 07:17:34;;;;;;;33.33;17.23;;;-2.70;99.90;;;;;;6307362;22;20064;-82
2021/12/11 07:20:19;;;;;;;30.77;17.57;;;-2.70;99.90;;;;;;6305853;22;20041;-82
2021/12/11 07:23:04;;;;;;;31.53;18.30;;;-2.70;99.90;;;;;;6306485;22;20058;-81
2021/12/11 07:25:54;;;;;;;33.20;17.70;;;-2.70;99.90;;;;;;6305740;22;20445;-81
2021/12/11 07:28:41;;;;;;;30.23;17.57;;;-2.70;99.90;;;;;;6306919;22;20061;-81
2021/12/11 07:31:25;;;;;;;36.47;18.87;;;-2.60;99.90;;;;;;6306834;22;20014;-81
2021/12/11 07:34:10;;;;;;;32.47;18.00;;;-2.00;99.90;;;;;;6306509;22;20022;-81
2021/12/11 07:36:55;;;;;;;35.60;17.90;;;-2.80;99.90;;;;;;6305202;22;20014;-83
2021/12/11 07:39:39;;;;;;;32.50;17.97;;;-2.80;99.90;;;;;;6305898;22;20018;-81
2021/12/11 07:42:24;;;;;;;33.90;17.80;;;-2.80;99.90;;;;;;6261991;22;20026;-81
2021/12/11 07:45:09;;;;;;;32.30;18.40;;;-2.80;99.90;;;;;;6283353;22;20069;-81
2021/12/11 07:47:53;;;;;;;30.17;17.43;;;-2.70;99.90;;;;;;6306593;22;20076;-82
2021/12/11 07:50:39;;;;;;;36.13;18.13;;;-2.80;99.90;;;;;;6305341;22;20017;-81
2021/12/11 07:53:23;;;;;;;31.00;17.23;;;-2.80;99.90;;;;;;6283784;22;20160;-82
2021/12/11 07:56:08;;;;;;;31.60;18.43;;;-2.70;99.90;;;;;;6304959;22;20444;-82
2021/12/11 07:58:55;;;;;;;30.63;17.43;;;-2.70;99.90;;;;;;6283269;22;20026;-81
2021/12/11 08:01:43;;;;;;;33.17;18.03;;;-2.70;99.90;;;;;;6304592;22;20019;-81
2021/12/11 08:04:27;;;;;;;34.13;18.00;;;-2.70;99.90;;;;;;6304086;22;20090;-81
2021/12/11 08:07:12;;;;;;;30.20;16.47;;;-2.70;99.90;;;;;;6281949;22;20045;-81
2021/12/11 08:09:56;;;;;;;30.57;17.23;;;-2.50;99.90;;;;;;6303563;22;20015;-83
2021/12/11 08:12:41;;;;;;;32.53;19.00;;;-2.70;99.90;;;;;;6282229;22;20022;-81
2021/12/11 08:15:27;;;;;;;36.93;17.27;;;-2.70;99.90;;;;;;6304834;22;20018;-81
2021/12/11 08:18:13;;;;;;;34.00;18.97;;;-2.70;99.90;;;;;;6304233;22;20015;-81
2021/12/11 08:20:57;;;;;;;36.00;18.10;;;-2.60;99.90;;;;;;6305439;22;20385;-81
2021/12/11 08:23:44;;;;;;;33.00;16.90;;;-2.60;99.90;;;;;;6303926;22;20345;-80
2021/12/11 08:26:29;;;;;;;35.13;19.33;;;-2.60;99.90;;;;;;6305283;22;20120;-82
2021/12/11 08:29:16;;;;;;;36.17;19.07;;;-2.60;99.90;;;;;;6304766;22;20014;-82
2021/12/11 08:32:01;;;;;;;40.67;20.53;;;-2.50;99.90;;;;;;6305351;22;20014;-82
2021/12/11 08:34:45;;;;;;;39.37;20.37;;;-2.50;99.90;;;;;;6303996;22;20333;-80
2021/12/11 08:37:29;;;;;;;39.00;20.63;;;-2.50;99.90;;;;;;6283355;22;20441;-79
2021/12/11 08:40:19;;;;;;;37.50;21.50;;;-2.30;99.90;;;;;;6305863;22;20377;-82
2021/12/11 08:43:05;;;;;;;39.67;21.63;;;-2.30;99.90;;;;;;6304773;22;20034;-85
2021/12/11 08:46:07;;;;;;;36.60;20.43;;;-2.30;99.90;;;;;;6306492;22;20157;-82
2021/12/11 08:48:53;;;;;;;41.70;21.13;;;-2.20;99.90;;;;;;6305468;22;20516;-81
2021/12/11 08:51:49;;;;;;;35.57;21.27;;;-2.20;99.90;;;;;;6305412;22;20383;-82
2021/12/11 08:54:35;;;;;;;40.20;22.07;;;-2.00;99.90;;;;;;6305755;22;20017;-83
2021/12/11 08:57:23;;;;;;;37.40;22.10;;;-1.90;99.90;;;;;;6304548;22;20073;-82
2021/12/11 09:00:29;;;;;;;42.70;22.10;;;-2.00;99.90;;;;;;6306297;22;20021;-83
2021/12/11 09:03:33;;;;;;;45.83;22.57;;;-1.90;99.90;;;;;;6306638;22;20481;-83
2021/12/11 09:06:32;;;;;;;48.05;23.25;;;-1.80;99.90;;;;;;6306742;22;20018;-83
2021/12/11 09:09:28;;;;;;;46.47;24.27;;;-1.70;99.90;;;;;;6307843;22;20026;-83
2021/12/11 09:12:12;;;;;;;48.87;23.57;;;-1.60;99.90;;;;;;6306654;22;20011;-83
2021/12/11 09:15:09;;;;;;;54.57;25.10;;;-1.60;99.90;;;;;;6306731;22;20014;-84
2021/12/11 09:18:11;;;;;;;48.97;24.73;;;-1.50;99.90;;;;;;6308252;22;20041;-83
2021/12/11 09:21:01;;;;;;;53.50;25.57;;;-1.40;99.90;;;;;;6308222;22;20060;-83
2021/12/11 09:23:55;;;;;;;50.87;26.80;;;-1.30;99.90;;;;;;6307243;22;20117;-83
2021/12/11 09:26:42;;;;;;;56.30;28.57;;;-1.20;99.90;;;;;;6308544;22;20015;-82
2021/12/11 09:29:41;;;;;;;59.70;28.33;;;-1.10;99.90;;;;;;6307718;22;20015;-83
2021/12/11 09:32:31;;;;;;;55.03;25.57;;;-1.00;99.90;;;;;;6306509;22;20098;-83
2021/12/11 09:35:29;;;;;;;52.33;27.57;;;-0.80;99.90;;;;;;6306541;22;20011;-84
2021/12/11 09:38:22;;;;;;;61.57;29.03;;;-0.70;99.90;;;;;;6307603;22;20340;-83
2021/12/11 09:41:21;;;;;;;56.93;27.03;;;-0.50;99.90;;;;;;6307669;22;20011;-82
2021/12/11 09:44:11;;;;;;;55.80;27.03;;;-0.50;99.90;;;;;;6306628;22;20061;-81
2021/12/11 09:47:08;;;;;;;52.40;27.20;;;-0.40;99.90;;;;;;6307708;22;20042;-82
2021/12/11 09:49:58;;;;;;;67.90;31.40;;;-0.30;99.90;;;;;;6306796;22;20060;-82
2021/12/11 09:52:46;;;;;;;54.90;28.10;;;-0.20;99.90;;;;;;6308059;22;20077;-82
2021/12/11 09:55:36;;;;;;;61.47;29.80;;;-0.10;99.90;;;;;;6306590;22;20018;-82
2021/12/11 09:58:26;;;;;;;50.67;26.07;;;0.00;99.90;;;;;;6306204;22;20086;-83
2021/12/11 10:01:16;;;;;;;54.90;27.30;;;0.10;99.90;;;;;;6306802;22;20080;-83
2021/12/11 10:04:09;;;;;;;53.37;27.57;;;0.20;99.90;;;;;;6307851;22;20014;-83
2021/12/11 10:09:49;;;;;;;52.23;26.10;;;0.40;99.90;;;;;;6307909;22;20065;-84
2021/12/11 10:12:37;;;;;;;51.97;25.80;;;0.50;99.90;;;;;;6305305;22;20018;-84
2021/12/11 10:15:28;;;;;;;49.93;25.33;;;0.90;99.90;;;;;;6307314;22;20010;-85
2021/12/11 10:18:18;;;;;;;51.93;27.50;;;1.70;99.90;;;;;;6307639;22;20014;-85
2021/12/11 10:21:24;;;;;;;46.60;24.70;;;0.70;99.90;;;;;;6307194;22;20061;-85
2021/12/11 10:24:14;;;;;;;46.70;23.53;;;0.80;99.90;;;;;;6307142;22;20018;-87
2021/12/11 10:27:01;;;;;;;47.63;25.20;;;0.90;99.90;;;;;;6307253;22;20018;-85
2021/12/11 10:29:46;;;;;;;46.37;25.43;;;1.20;99.90;;;;;;6306183;22;20041;-86
2021/12/11 10:32:33;;;;;;;47.57;23.63;;;1.10;99.90;;;;;;6307033;22;20045;-84
2021/12/11 10:35:24;;;;;;;47.53;24.93;;;1.10;99.90;;;;;;6307494;22;20014;-84
2021/12/11 10:38:09;;;;;;;48.50;24.23;;;1.60;99.90;;;;;;6307581;22;20009;-84
2021/12/11 10:40:57;;;;;;;44.33;25.40;;;1.30;99.90;;;;;;6307599;22;20095;-85
2021/12/11 10:43:53;;;;;;;49.03;24.57;;;1.40;99.90;;;;;;6305711;22;20099;-85
2021/12/11 10:46:51;;;;;;;44.70;24.67;;;1.80;99.90;;;;;;6305756;22;20046;-84
2021/12/11 10:49:37;;;;;;;45.40;24.90;;;1.50;99.90;;;;;;6305784;22;20010;-85
2021/12/11 10:52:27;;;;;;;47.33;26.33;;;2.00;99.90;;;;;;6305792;22;20018;-86
2021/12/11 10:55:17;;;;;;;53.87;28.40;;;2.20;99.90;;;;;;6306310;22;20053;-84
2021/12/11 10:58:07;;;;;;;46.47;25.33;;;1.70;99.90;;;;;;6285523;22;20016;-83
2021/12/11 11:01:04;;;;;;;43.33;24.93;;;1.70;99.90;;;;;;6306221;22;20093;-83
2021/12/11 11:03:54;;;;;;;46.23;25.43;;;2.00;99.90;;;;;;6307055;22;20046;-83
2021/12/11 11:06:40;;;;;;;47.63;24.70;;;2.20;99.90;;;;;;6306912;22;20342;-83
2021/12/11 11:09:25;;;;;;;43.83;25.17;;;1.90;99.90;;;;;;6305506;22;20468;-83
2021/12/11 11:12:14;;;;;;;44.70;24.97;;;1.90;99.90;;;;;;6305980;22;20069;-83
2021/12/11 11:14:59;;;;;;;42.23;26.03;;;2.00;99.90;;;;;;6306118;22;20029;-83
2021/12/11 11:17:44;;;;;;;40.63;25.40;;;2.10;99.90;;;;;;6305479;22;20607;-82
2021/12/11 11:20:35;;;;;;;50.07;25.03;;;2.40;99.90;;;;;;6305348;22;20449;-83
2021/12/11 11:23:20;;;;;;;49.97;26.63;;;2.10;99.90;;;;;;6306965;22;20448;-83
2021/12/11 11:26:07;;;;;;;45.20;25.13;;;2.20;99.90;;;;;;6307150;22;20026;-82
2021/12/11 11:28:54;;;;;;;44.43;25.33;;;2.20;99.90;;;;;;6305909;22;20117;-82
2021/12/11 11:31:42;;;;;;;46.17;26.30;;;2.30;99.90;;;;;;6306538;22;20464;-82
2021/12/11 11:34:27;;;;;;;38.10;24.00;;;2.30;99.90;;;;;;6305383;22;20064;-83
2021/12/11 11:37:19;;;;;;;41.07;23.27;;;2.40;99.90;;;;;;6305816;22;20068;-82
2021/12/11 11:40:08;;;;;;;45.40;24.70;;;2.40;99.90;;;;;;6306984;22;20014;-82
2021/12/11 11:42:53;;;;;;;45.73;23.57;;;2.50;99.90;;;;;;6307033;22;20017;-82
2021/12/11 11:45:39;;;;;;;46.13;25.13;;;2.50;99.90;;;;;;6305226;22;20069;-83
2021/12/11 11:48:26;;;;;;;41.83;23.63;;;2.70;99.90;;;;;;6307084;22;20072;-82
2021/12/11 11:51:51;;;;;;;42.83;23.47;;;2.70;99.90;;;;;;6305894;22;20333;-81
2021/12/11 11:54:37;;;;;;;43.60;23.90;;;2.80;99.90;;;;;;6305158;22;20014;-82
2021/12/11 11:57:28;;;;;;;37.97;22.47;;;3.40;99.90;;;;;;6305621;22;20068;-82
2021/12/11 12:00:21;;;;;;;43.90;24.27;;;3.10;99.90;;;;;;6306476;22;20022;-82
2021/12/11 12:03:07;;;;;;;35.88;20.98;;;3.30;99.90;;;;;;6305432;22;20019;-82
2021/12/11 12:05:55;;;;;;;37.80;21.00;;;3.40;99.90;;;;;;6305010;22;20086;-81
2021/12/11 12:08:42;;;;;;;37.17;21.17;;;3.50;99.90;;;;;;6304966;22;20030;-81
2021/12/11 12:11:33;;;;;;;36.67;22.23;;;3.50;99.90;;;;;;6306911;22;20440;-82
2021/12/11 12:14:21;;;;;;;40.23;21.73;;;3.50;99.90;;;;;;6305569;22;20044;-82
2021/12/11 12:17:07;;;;;;;37.53;22.47;;;3.50;99.90;;;;;;6306715;22;20100;-82
2021/12/11 12:19:54;;;;;;;38.97;21.53;;;3.50;99.90;;;;;;6306287;22;20077;-82
2021/12/11 12:22:41;;;;;;;36.07;20.90;;;3.60;99.90;;;;;;6306121;22;20026;-82
2021/12/11 12:25:26;;;;;;;33.33;20.83;;;4.20;99.90;;;;;;6306761;22;20452;-82
2021/12/11 12:28:11;;;;;;;39.60;21.10;;;3.70;99.90;;;;;;6306744;22;20337;-82
2021/12/11 12:31:06;;;;;;;34.27;20.57;;;3.60;99.90;;;;;;6304896;22;20341;-82
2021/12/11 12:33:50;;;;;;;37.93;22.37;;;3.60;99.90;;;;;;6306139;22;20064;-81
2021/12/11 12:36:36;;;;;;;40.33;22.60;;;3.70;99.90;;;;;;6306856;22;20022;-82
2021/12/11 12:39:26;;;;;;;37.50;21.30;;;3.60;99.90;;;;;;6309018;22;20341;-83
2021/12/11 12:42:28;;;;;;;43.20;21.93;;;4.00;99.90;;;;;;6308694;22;20042;-82
2021/12/11 12:45:15;;;;;;;38.90;22.73;;;3.60;99.90;;;;;;6308783;22;20014;-81
2021/12/11 12:48:08;;;;;;;38.80;20.83;;;4.30;99.90;;;;;;6309089;22;20026;-81
2021/12/11 12:50:59;;;;;;;37.30;20.43;;;3.70;99.90;;;;;;6307052;22;20041;-82
2021/12/11 12:53:44;;;;;;;36.53;21.37;;;3.60;99.90;;;;;;6306794;22;20502;-82
2021/12/11 12:56:37;;;;;;;35.63;20.83;;;3.60;99.90;;;;;;6307409;22;20017;-82
2021/12/11 12:59:30;;;;;;;34.67;21.60;;;3.70;99.90;;;;;;6308885;22;20076;-82
2021/12/11 13:02:18;;;;;;;33.83;20.85;;;3.60;99.90;;;;;;6308715;22;20072;-82
2021/12/11 13:05:14;;;;;;;36.60;19.87;;;3.60;99.90;;;;;;6308895;22;20459;-82
2021/12/11 13:08:05;;;;;;;39.60;21.00;;;3.60;99.90;;;;;;6306733;22;20336;-82
2021/12/11 13:10:54;;;;;;;33.50;21.07;;;3.60;99.90;;;;;;6307954;22;20014;-82
2021/12/11 13:13:40;;;;;;;33.70;20.10;;;4.00;99.90;;;;;;6307988;22;20068;-83
2021/12/11 13:16:32;;;;;;;40.63;21.97;;;3.70;99.90;;;;;;6308659;22;20014;-82
2021/12/11 13:19:22;;;;;;;41.03;21.53;;;3.60;99.90;;;;;;6308417;22;20014;-82
2021/12/11 13:22:08;;;;;;;34.30;20.53;;;3.90;99.90;;;;;;6308402;22;20129;-82
2021/12/11 13:24:57;;;;;;;34.30;20.77;;;3.60;99.90;;;;;;6308125;22;20460;-83
2021/12/11 13:27:42;;;;;;;37.53;20.13;;;3.90;99.90;;;;;;6307875;22;20011;-83
2021/12/11 13:30:35;;;;;;;40.80;20.53;;;3.70;99.90;;;;;;6308472;22;20014;-82
2021/12/11 13:33:22;;;;;;;36.97;20.67;;;3.50;99.90;;;;;;6308335;22;20045;-82
2021/12/11 13:36:09;;;;;;;35.23;20.67;;;3.50;99.90;;;;;;6306648;22;20060;-83
2021/12/11 13:38:53;;;;;;;36.43;19.80;;;3.40;99.90;;;;;;6307546;22;20345;-83
2021/12/11 13:41:48;;;;;;;40.43;21.07;;;3.40;99.90;;;;;;6307962;22;20505;-83
2021/12/11 13:44:43;;;;;;;39.83;21.55;;;3.30;99.90;;;;;;6307835;22;20018;-83
2021/12/11 13:47:32;;;;;;;42.37;21.23;;;3.60;99.90;;;;;;6308050;22;20329;-82
2021/12/11 13:50:26;;;;;;;37.20;20.10;;;3.30;99.90;;;;;;6307829;22;20033;-83
2021/12/11 13:53:12;;;;;;;37.47;20.30;;;3.30;99.90;;;;;;6306662;22;20013;-82
2021/12/11 13:55:58;;;;;;;35.27;20.03;;;3.40;99.90;;;;;;6306158;22;20073;-83
2021/12/11 13:58:42;;;;;;;34.00;20.03;;;3.30;99.90;;;;;;6306431;22;20451;-84
2021/12/11 14:01:31;;;;;;;43.97;22.10;;;3.90;99.90;;;;;;6308026;22;20033;-83
2021/12/11 14:04:19;;;;;;;43.63;21.40;;;3.30;99.90;;;;;;6306751;22;20019;-83
2021/12/11 14:07:18;;;;;;;33.10;19.70;;;3.50;99.90;;;;;;6305957;22;20606;-83
2021/12/11 14:10:09;;;;;;;33.87;20.30;;;3.80;99.90;;;;;;6304166;22;20010;-83
2021/12/11 14:12:55;;;;;;;31.33;19.37;;;3.30;99.90;;;;;;6307115;22;20014;-83
2021/12/11 14:15:41;;;;;;;34.93;19.23;;;3.30;99.90;;;;;;6307467;22;20009;-83
2021/12/11 14:18:25;;;;;;;38.90;22.17;;;3.70;99.90;;;;;;6307741;22;20081;-83
2021/12/11 14:21:10;;;;;;;37.77;20.27;;;3.30;99.90;;;;;;6306165;22;20014;-83
2021/12/11 14:23:54;;;;;;;37.50;21.80;;;3.70;99.90;;;;;;6305601;22;20471;-82
2021/12/11 14:26:41;;;;;;;42.03;22.03;;;3.50;99.90;;;;;;6284666;22;20015;-83
2021/12/11 14:29:25;;;;;;;47.83;21.63;;;3.30;99.90;;;;;;6306280;22;20069;-82